createdAt,value
2023-02-22T00:00:48.451Z,18.13
2023-02-22T00:03:28.139Z,18.48
2023-02-22T00:05:59.696Z,18.20
2023-02-22T00:08:30.600Z,17.13
2023-02-22T00:10:58.686Z,17.05
2023-02-22T00:13:25.741Z,16.83
2023-02-22T00:15:52.463Z,15.88
2023-02-22T00:18:20.044Z,17.42
2023-02-22T00:20:46.971Z,17.00
2023-02-22T00:23:20.203Z,16.45
2023-02-22T00:25:49.922Z,17.83
2023-02-22T00:28:20.166Z,16.92
2023-02-22T00:30:54.470Z,16.02
2023-02-22T00:33:27.895Z,16.25
2023-02-22T00:35:59.857Z,16.60
2023-02-22T00:38:26.971Z,14.63
2023-02-22T00:40:53.626Z,15.15
2023-02-22T00:43:21.948Z,16.23
2023-02-22T00:46:11.230Z,15.75
2023-02-22T00:48:55.843Z,16.63
2023-02-22T00:51:48.959Z,16.37
2023-02-22T00:54:20.243Z,15.73
2023-02-22T00:56:47.114Z,15.75
2023-02-22T00:59:13.950Z,15.98
2023-02-22T01:01:41.050Z,16.13
2023-02-22T01:04:07.791Z,16.20
2023-02-22T01:06:34.834Z,15.35
2023-02-22T01:09:02.410Z,15.40
2023-02-22T01:11:29.217Z,15.18
2023-02-22T01:13:57.803Z,15.77
2023-02-22T01:16:24.489Z,16.43
2023-02-22T01:18:53.933Z,15.98
2023-02-22T01:21:20.843Z,15.68
2023-02-22T01:23:47.641Z,15.25
2023-02-22T01:26:14.283Z,14.95
2023-02-22T01:28:40.933Z,16.03
2023-02-22T01:31:08.142Z,16.40
2023-02-22T01:33:34.935Z,16.85
2023-02-22T01:36:01.644Z,17.77
2023-02-22T01:38:29.589Z,15.85
2023-02-22T01:40:56.999Z,17.00
2023-02-22T01:43:32.395Z,16.67
2023-02-22T01:46:02.254Z,16.27
2023-02-22T01:48:52.122Z,15.60
2023-02-22T01:51:27.255Z,16.88
2023-02-22T01:54:01.470Z,15.63
2023-02-22T01:56:32.006Z,15.20
2023-02-22T01:59:07.054Z,15.88
2023-02-22T02:01:36.229Z,15.02
2023-02-22T02:04:10.653Z,13.88
2023-02-22T02:06:38.949Z,14.50
2023-02-22T02:09:37.746Z,15.35
2023-02-22T02:12:07.352Z,14.32
2023-02-22T02:14:41.955Z,15.73
2023-02-22T02:17:10.975Z,13.85
2023-02-22T02:20:14.141Z,14.53
2023-02-22T02:23:25.579Z,14.90
2023-02-22T02:26:22.211Z,14.13
2023-02-22T02:29:29.307Z,15.35
2023-02-22T02:32:23.113Z,15.50
2023-02-22T02:35:12.387Z,13.90
2023-02-22T02:37:57.797Z,14.80
2023-02-22T02:40:49.272Z,14.75
2023-02-22T02:43:42.108Z,15.18
2023-02-22T02:46:18.295Z,14.60
2023-02-22T02:49:01.061Z,13.77
2023-02-22T02:51:36.553Z,14.60
2023-02-22T02:54:04.850Z,14.68
2023-02-22T02:56:32.032Z,15.02
2023-02-22T02:58:58.774Z,15.07
2023-02-22T03:01:40.079Z,15.20
2023-02-22T03:04:30.994Z,14.32
2023-02-22T03:07:06.986Z,15.25
2023-02-22T03:09:54.908Z,15.43
2023-02-22T03:12:49.862Z,14.25
2023-02-22T03:15:32.568Z,15.07
2023-02-22T03:18:47.493Z,15.35
2023-02-22T03:21:27.267Z,15.45
2023-02-22T03:24:07.041Z,14.77
2023-02-22T03:26:43.616Z,13.95
2023-02-22T03:29:12.988Z,15.40
2023-02-22T03:31:45.500Z,14.68
2023-02-22T03:34:24.169Z,14.50
2023-02-22T03:36:58.939Z,15.02
2023-02-22T03:39:31.260Z,15.75
2023-02-22T03:42:05.197Z,14.43
2023-02-22T03:44:33.301Z,15.40
2023-02-22T03:47:06.622Z,14.45
2023-02-22T03:49:49.641Z,15.15
2023-02-22T03:52:17.395Z,14.05
2023-02-22T03:54:44.630Z,14.57
2023-02-22T03:57:19.621Z,15.50
2023-02-22T03:59:47.013Z,13.88
2023-02-22T04:02:14.261Z,14.73
2023-02-22T04:04:43.011Z,14.55
2023-02-22T04:07:09.614Z,15.07
2023-02-22T04:09:36.237Z,15.38
2023-02-22T04:12:05.082Z,15.68
2023-02-22T04:14:42.923Z,14.38
2023-02-22T04:17:10.428Z,14.18
2023-02-22T04:19:37.139Z,14.70
2023-02-22T04:22:03.748Z,14.13
2023-02-22T04:24:31.375Z,14.82
2023-02-22T04:26:58.048Z,14.13
2023-02-22T04:29:24.939Z,15.35
2023-02-22T04:31:52.182Z,15.67
2023-02-22T04:34:24.076Z,14.95
2023-02-22T04:36:53.465Z,15.18
2023-02-22T04:39:21.631Z,15.45
2023-02-22T04:41:50.118Z,15.60
2023-02-22T04:44:16.956Z,14.80
2023-02-22T04:46:43.842Z,15.70
2023-02-22T04:49:13.689Z,14.07
2023-02-22T04:51:41.317Z,16.17
2023-02-22T04:54:08.621Z,15.27
2023-02-22T04:56:35.256Z,13.33
2023-02-22T04:59:01.901Z,14.40
2023-02-22T05:01:38.466Z,13.98
2023-02-22T05:04:06.720Z,13.45
2023-02-22T05:06:33.372Z,14.00
2023-02-22T05:09:00.129Z,14.03
2023-02-22T05:11:26.611Z,15.15
2023-02-22T05:13:53.230Z,14.32
2023-02-22T05:16:19.917Z,15.10
2023-02-22T05:18:46.588Z,14.32
2023-02-22T05:21:13.708Z,14.87
2023-02-22T05:23:40.321Z,14.32
2023-02-22T05:26:08.403Z,14.85
2023-02-22T05:28:36.289Z,14.80
2023-02-22T05:31:03.060Z,16.58
2023-02-22T05:33:29.918Z,15.80
2023-02-22T05:35:56.521Z,15.38
2023-02-22T05:38:23.498Z,14.60
2023-02-22T05:40:50.527Z,16.10
2023-02-22T05:43:17.340Z,15.68
2023-02-22T05:45:44.035Z,15.73
2023-02-22T05:48:10.526Z,15.60
2023-02-22T05:50:37.098Z,14.98
2023-02-22T05:53:04.090Z,16.05
2023-02-22T05:55:30.980Z,16.25
2023-02-22T05:57:57.642Z,15.47
2023-02-22T06:00:30.127Z,15.98
2023-02-22T06:03:08.633Z,16.02
2023-02-22T06:05:36.064Z,15.60
2023-02-22T06:08:04.093Z,15.85
2023-02-22T06:10:30.986Z,15.83
2023-02-22T06:12:58.902Z,15.23
2023-02-22T06:15:27.362Z,15.55
2023-02-22T06:17:55.860Z,15.52
2023-02-22T06:20:24.167Z,15.40
2023-02-22T06:22:52.158Z,15.43
2023-02-22T06:25:22.170Z,15.50
2023-02-22T06:27:48.779Z,15.85
2023-02-22T06:30:17.112Z,16.83
2023-02-22T06:32:43.918Z,14.95
2023-02-22T06:35:10.582Z,16.07
2023-02-22T06:37:38.678Z,16.05
2023-02-22T06:40:06.176Z,15.02
2023-02-22T06:42:33.033Z,15.27
2023-02-22T06:44:59.782Z,15.43
2023-02-22T06:47:26.496Z,15.17
2023-02-22T06:49:57.567Z,16.15
2023-02-22T06:52:24.258Z,15.02
2023-02-22T06:54:51.764Z,14.75
2023-02-22T06:57:18.532Z,15.95
2023-02-22T06:59:45.132Z,16.37
2023-02-22T07:02:12.399Z,15.40
2023-02-22T07:04:40.419Z,17.13
2023-02-22T07:07:09.026Z,14.20
2023-02-22T07:09:35.625Z,14.82
2023-02-22T07:12:02.400Z,15.50
2023-02-22T07:14:28.925Z,15.82
2023-02-22T07:16:55.501Z,16.58
2023-02-22T07:19:22.070Z,15.32
2023-02-22T07:21:48.689Z,15.60
2023-02-22T07:24:15.268Z,14.83
2023-02-22T07:26:42.957Z,15.93
2023-02-22T07:29:11.307Z,15.00
2023-02-22T07:31:39.063Z,16.05
2023-02-22T07:34:06.717Z,14.95
2023-02-22T07:36:33.540Z,15.30
2023-02-22T07:39:00.137Z,15.80
2023-02-22T07:41:26.928Z,15.65
2023-02-22T07:43:53.589Z,13.95
2023-02-22T07:46:20.232Z,14.38
2023-02-22T07:48:46.974Z,13.93
2023-02-22T07:51:16.894Z,14.63
2023-02-22T07:53:43.896Z,14.70
2023-02-22T07:56:10.605Z,13.50
2023-02-22T07:58:37.389Z,14.65
2023-02-22T08:01:04.475Z,13.80
2023-02-22T08:03:36.759Z,14.32
2023-02-22T08:06:05.757Z,13.27
2023-02-22T08:08:32.548Z,13.02
2023-02-22T08:10:59.107Z,12.85
2023-02-22T08:13:25.709Z,14.13
2023-02-22T08:15:53.914Z,13.15
2023-02-22T08:18:21.927Z,11.52
2023-02-22T08:20:49.973Z,12.05
2023-02-22T08:23:19.059Z,11.27
2023-02-22T08:25:47.341Z,11.30
2023-02-22T08:28:16.768Z,11.68
2023-02-22T08:30:43.938Z,11.57
2023-02-22T08:33:16.809Z,11.15
2023-02-22T08:35:43.870Z,10.55
2023-02-22T08:38:26.978Z,10.30
2023-02-22T08:40:54.036Z,10.10
2023-02-22T08:43:22.011Z,9.43
2023-02-22T08:45:49.421Z,10.02
2023-02-22T08:48:16.082Z,10.07
2023-02-22T08:50:44.247Z,9.13
2023-02-22T08:53:13.540Z,9.73
2023-02-22T08:55:41.787Z,8.90
2023-02-22T08:58:12.475Z,9.02
2023-02-22T09:00:40.600Z,9.82
2023-02-22T09:03:10.456Z,9.87
2023-02-22T09:05:37.079Z,8.65
2023-02-22T09:08:04.144Z,9.73
2023-02-22T09:10:33.051Z,9.20
2023-02-22T09:13:01.377Z,9.18
2023-02-22T09:15:28.760Z,9.10
2023-02-22T09:17:56.145Z,9.02
2023-02-22T09:20:24.434Z,9.93
2023-02-22T09:22:51.092Z,9.80
2023-02-22T09:25:20.594Z,8.13
2023-02-22T09:27:52.207Z,8.73
2023-02-22T09:30:28.280Z,9.55
2023-02-22T09:32:58.094Z,9.70
2023-02-22T09:35:27.509Z,10.38
2023-02-22T09:37:59.001Z,8.68
2023-02-22T09:40:33.761Z,10.00
2023-02-22T09:43:40.634Z,10.23
2023-02-22T09:46:38.371Z,9.70
2023-02-22T09:49:25.383Z,9.75
2023-02-22T09:52:07.911Z,9.23
2023-02-22T09:55:06.906Z,9.03
2023-02-22T09:57:43.824Z,9.65
2023-02-22T10:00:19.071Z,8.88
2023-02-22T10:03:07.007Z,10.00
2023-02-22T10:05:37.850Z,8.77
2023-02-22T10:08:10.649Z,8.33
2023-02-22T10:10:41.288Z,10.68
2023-02-22T10:13:24.172Z,10.20
2023-02-22T10:16:10.342Z,10.73
2023-02-22T10:19:04.412Z,10.25
2023-02-22T10:21:52.615Z,10.43
2023-02-22T10:24:53.409Z,11.75
2023-02-22T10:27:31.999Z,12.32
2023-02-22T10:30:25.070Z,10.55
2023-02-22T10:33:20.100Z,9.25
2023-02-22T10:35:47.478Z,8.63
2023-02-22T10:38:35.520Z,8.20
2023-02-22T10:41:08.521Z,8.77
2023-02-22T10:43:40.845Z,8.70
2023-02-22T10:46:09.820Z,7.78
2023-02-22T10:48:40.186Z,7.83
2023-02-22T10:51:13.620Z,8.27
2023-02-22T10:53:40.452Z,7.38
2023-02-22T10:56:29.564Z,7.90
2023-02-22T10:59:02.709Z,6.65
2023-02-22T11:01:38.011Z,7.67
2023-02-22T11:04:20.043Z,7.55
2023-02-22T11:06:49.933Z,6.57
2023-02-22T11:09:24.329Z,7.47
2023-02-22T11:12:14.686Z,6.97
2023-02-22T11:14:42.717Z,6.63
2023-02-22T11:17:31.577Z,7.00
2023-02-22T11:20:18.142Z,7.20
2023-02-22T11:22:44.820Z,6.68
2023-02-22T11:25:25.004Z,4.15
2023-02-22T11:27:52.540Z,6.83
2023-02-22T11:33:38.390Z,6.80
2023-02-22T11:37:14.814Z,6.65
2023-02-22T11:40:37.339Z,6.47
2023-02-22T11:43:16.877Z,6.93
2023-02-22T11:46:22.485Z,6.65
2023-02-22T11:49:00.813Z,7.28
2023-02-22T11:51:46.641Z,6.97
2023-02-22T11:54:22.377Z,7.18
2023-02-22T12:04:23.996Z,7.13
2023-02-22T12:07:09.511Z,7.38
2023-02-22T12:09:54.870Z,6.85
2023-02-22T12:12:37.853Z,5.60
2023-02-22T12:15:25.355Z,6.30
2023-02-22T12:18:17.449Z,6.30
2023-02-22T12:21:09.276Z,6.82
2023-02-22T12:28:40.504Z,6.00
2023-02-22T12:32:25.114Z,5.93
2023-02-22T12:35:58.440Z,6.15
2023-02-22T12:38:44.436Z,6.57
2023-02-22T12:41:38.089Z,7.07
2023-02-22T12:45:09.848Z,5.80
2023-02-22T12:47:45.879Z,6.80
2023-02-22T12:50:27.476Z,6.82
2023-02-22T12:53:06.739Z,6.43
2023-02-22T12:55:56.702Z,6.65
2023-02-22T12:59:01.901Z,6.57
2023-02-22T13:07:24.115Z,6.30
2023-02-22T13:14:33.369Z,6.00
2023-02-22T13:19:27.802Z,5.87
2023-02-22T13:22:20.073Z,5.30
2023-02-22T13:26:32.539Z,5.20
2023-02-22T13:41:01.728Z,4.38
2023-02-22T13:43:58.515Z,4.10
2023-02-22T13:47:22.648Z,4.30
2023-02-22T13:50:18.315Z,5.80
2023-02-22T13:52:46.096Z,4.37
2023-02-22T13:55:35.980Z,4.43
2023-02-22T13:58:26.968Z,4.60
2023-02-22T14:01:01.242Z,4.25
2023-02-22T14:03:46.449Z,4.78
2023-02-22T14:22:08.815Z,4.20
2023-02-22T14:25:09.844Z,3.10
2023-02-22T14:27:42.603Z,3.72
2023-02-22T14:30:26.208Z,3.63
2023-02-22T14:32:53.626Z,3.50
2023-02-22T14:36:38.636Z,3.67
2023-02-22T14:39:27.455Z,3.60
2023-02-22T14:54:17.782Z,3.35
2023-02-22T14:57:32.380Z,3.17
2023-02-22T15:04:01.986Z,1.25
2023-02-22T16:13:59.071Z,1.13
2023-02-22T18:37:22.525Z,2.28
2023-02-22T18:39:55.562Z,2.65
2023-02-22T18:42:25.623Z,1.37
2023-02-22T18:48:05.286Z,1.67
2023-02-22T18:50:41.454Z,1.73
2023-02-22T19:12:27.225Z,1.83
2023-02-22T19:15:01.484Z,2.10
2023-02-22T20:52:20.569Z,2.40
2023-02-22T20:55:21.898Z,2.10
2023-02-22T20:57:50.910Z,2.53
2023-02-22T21:00:32.183Z,2.47
2023-02-22T21:03:25.267Z,2.22
2023-02-22T21:06:23.698Z,2.00
2023-02-22T21:09:52.161Z,2.50
2023-02-22T21:16:21.927Z,2.35
2023-02-22T21:19:08.525Z,2.85
2023-02-22T21:21:42.233Z,2.58
2023-02-22T21:24:22.087Z,2.07
2023-02-22T21:26:58.061Z,2.22
2023-02-22T21:29:33.816Z,2.20
2023-02-22T21:32:27.026Z,2.10
2023-02-22T21:35:25.492Z,1.85
2023-02-22T21:37:57.221Z,2.00
2023-02-22T21:52:20.740Z,1.77
2023-02-22T22:03:11.160Z,1.90
2023-02-22T22:05:52.952Z,2.28
2023-02-22T22:09:43.923Z,2.10
2023-02-22T22:12:13.521Z,2.60
2023-02-22T22:14:56.991Z,2.20
2023-02-22T22:17:45.829Z,2.17
2023-02-22T22:24:10.945Z,2.88
2023-02-22T22:26:51.892Z,2.50
2023-02-22T22:29:37.494Z,2.78
2023-02-22T22:32:06.111Z,2.20
2023-02-22T22:34:38.192Z,3.10
2023-02-22T22:37:30.448Z,2.95
2023-02-22T22:40:05.419Z,2.73
2023-02-22T22:42:32.514Z,3.45
2023-02-22T22:45:16.504Z,2.97
2023-02-22T22:47:50.630Z,2.78
2023-02-22T22:50:20.100Z,2.90
2023-02-22T22:52:53.937Z,2.80
2023-02-22T22:56:19.332Z,2.92
2023-02-22T22:59:09.822Z,2.97
2023-02-22T23:01:45.021Z,2.90
2023-02-22T23:04:17.359Z,3.75
2023-02-22T23:06:46.730Z,3.13
2023-02-22T23:09:24.310Z,2.78
2023-02-22T23:11:56.928Z,3.17
2023-02-22T23:14:31.523Z,3.53
2023-02-22T23:17:03.973Z,3.30
2023-02-22T23:19:35.034Z,3.20
2023-02-22T23:22:11.791Z,3.38
2023-02-22T23:24:49.277Z,3.08
2023-02-22T23:27:24.176Z,3.78
2023-02-22T23:29:51.518Z,4.18
2023-02-22T23:32:18.508Z,3.40
2023-02-22T23:34:48.348Z,4.60
2023-02-22T23:37:16.072Z,3.70
2023-02-22T23:39:51.743Z,3.75
2023-02-22T23:42:19.027Z,4.22
2023-02-22T23:44:48.086Z,4.00
